sensor_id;sensor_type;location;lat;lon;timestamp;temperature;humidity
13369;DHT22;6753;52.520;13.450;2023-03-26T00:00:08;20.20;63.90
13369;DHT22;6753;52.520;13.450;2023-03-26T00:00:19;20.20;63.90
13369;DHT22;6753;52.520;13.450;2023-03-26T00:00:30;20.30;64.00
13369;DHT22;6753;52.520;13.450;2023-03-26T00:00:42;20.20;63.50
13369;DHT22;6753;52.520;13.450;2023-03-26T00:00:53;20.20;63.60
13369;DHT22;6753;52.520;13.450;2023-03-26T00:01:10;20.20;63.60
13369;DHT22;6753;52.520;13.450;2023-03-26T00:01:23;20.20;63.90
13369;DHT22;6753;52.520;13.450;2023-03-26T00:01:36;20.20;63.70
13369;DHT22;6753;52.520;13.450;2023-03-26T00:01:47;20.20;63.80
13369;DHT22;6753;52.520;13.450;2023-03-26T00:01:59;20.20;63.90
13369;DHT22;6753;52.520;13.450;2023-03-26T00:02:09;20.20;64.00
13369;DHT22;6753;52.520;13.450;2023-03-26T00:02:20;20.20;64.00
13369;DHT22;6753;52.520;13.450;2023-03-26T00:02:32;20.20;64.00
13369;DHT22;6753;52.520;13.450;2023-03-26T00:02:43;20.20;64.00
13369;DHT22;6753;52.520;13.450;2023-03-26T00:02:55;20.20;64.00
13369;DHT22;6753;52.520;13.450;2023-03-26T00:03:06;20.10;64.00
13369;DHT22;6753;52.520;13.450;2023-03-26T00:03:19;20.20;64.10
13369;DHT22;6753;52.520;13.450;2023-03-26T00:03:30;20.20;63.90
13369;DHT22;6753;52.520;13.450;2023-03-26T00:03:42;20.20;63.80
13369;DHT22;6753;52.520;13.450;2023-03-26T00:03:56;20.20;63.90
13369;DHT22;6753;52.520;13.450;2023-03-26T00:04:08;20.10;63.90
13369;DHT22;6753;52.520;13.450;2023-03-26T00:04:21;20.20;64.00
13369;DHT22;6753;52.520;13.450;2023-03-26T00:04:34;20.10;64.00
13369;DHT22;6753;52.520;13.450;2023-03-26T00:04:45;20.20;64.10
13369;DHT22;6753;52.520;13.450;2023-03-26T00:04:56;20.20;64.10
13369;DHT22;6753;52.520;13.450;2023-03-26T00:05:08;20.20;64.10
13369;DHT22;6753;52.520;13.450;2023-03-26T00:05:19;20.20;64.00
13369;DHT22;6753;52.520;13.450;2023-03-26T00:05:31;20.20;64.00
13369;DHT22;6753;52.520;13.450;2023-03-26T00:05:42;20.20;64.00
13369;DHT22;6753;52.520;13.450;2023-03-26T00:06:00;20.20;64.00
13369;DHT22;6753;52.520;13.450;2023-03-26T00:06:14;20.20;64.00
13369;DHT22;6753;52.520;13.450;2023-03-26T00:06:26;20.20;64.10
13369;DHT22;6753;52.520;13.450;2023-03-26T00:06:38;20.20;64.10
13369;DHT22;6753;52.520;13.450;2023-03-26T00:06:51;20.20;64.10
13369;DHT22;6753;52.520;13.450;2023-03-26T00:07:01;20.20;63.90
13369;DHT22;6753;52.520;13.450;2023-03-26T00:07:12;20.30;64.10
13369;DHT22;6753;52.520;13.450;2023-03-26T00:07:23;20.20;64.10
13369;DHT22;6753;52.520;13.450;2023-03-26T00:07:34;20.20;64.10
13369;DHT22;6753;52.520;13.450;2023-03-26T00:07:45;20.20;63.90
13369;DHT22;6753;52.520;13.450;2023-03-26T00:07:55;20.20;63.70
13369;DHT22;6753;52.520;13.450;2023-03-26T00:08:07;20.20;63.80
13369;DHT22;6753;52.520;13.450;2023-03-26T00:08:18;19.00;62.90
13369;DHT22;6753;52.520;13.450;2023-03-26T00:08:29;20.20;63.80
13369;DHT22;6753;52.520;13.450;2023-03-26T00:08:41;20.20;63.90
13369;DHT22;6753;52.520;13.450;2023-03-26T00:08:54;20.20;63.80
13369;DHT22;6753;52.520;13.450;2023-03-26T00:09:06;20.20;63.80
13369;DHT22;6753;52.520;13.450;2023-03-26T00:09:17;20.20;63.50
13369;DHT22;6753;52.520;13.450;2023-03-26T00:09:28;20.20;63.60
13369;DHT22;6753;52.520;13.450;2023-03-26T00:09:39;20.20;63.70
13369;DHT22;6753;52.520;13.450;2023-03-26T00:09:51;20.20;63.60
13369;DHT22;6753;52.520;13.450;2023-03-26T00:10:03;20.20;63.80
13369;DHT22;6753;52.520;13.450;2023-03-26T00:10:13;20.20;63.90
13369;DHT22;6753;52.520;13.450;2023-03-26T00:10:24;20.20;63.70
13369;DHT22;6753;52.520;13.450;2023-03-26T00:10:35;20.20;63.60
13369;DHT22;6753;52.520;13.450;2023-03-26T00:10:47;20.20;63.70
13369;DHT22;6753;52.520;13.450;2023-03-26T00:10:57;20.20;63.70
13369;DHT22;6753;52.520;13.450;2023-03-26T00:11:10;20.20;63.80
13369;DHT22;6753;52.520;13.450;2023-03-26T00:11:24;20.20;63.90
13369;DHT22;6753;52.520;13.450;2023-03-26T00:11:35;20.20;63.70
13369;DHT22;6753;52.520;13.450;2023-03-26T00:11:45;20.20;63.60
13369;DHT22;6753;52.520;13.450;2023-03-26T00:11:56;20.20;63.50
13369;DHT22;6753;52.520;13.450;2023-03-26T00:12:07;20.20;63.60
13369;DHT22;6753;52.520;13.450;2023-03-26T00:12:18;20.20;63.30
13369;DHT22;6753;52.520;13.450;2023-03-26T00:12:29;20.10;63.50
13369;DHT22;6753;52.520;13.450;2023-03-26T00:12:40;20.10;63.30
13369;DHT22;6753;52.520;13.450;2023-03-26T00:12:51;20.20;63.50
13369;DHT22;6753;52.520;13.450;2023-03-26T00:13:01;20.20;63.60
13369;DHT22;6753;52.520;13.450;2023-03-26T00:13:12;20.20;63.60
13369;DHT22;6753;52.520;13.450;2023-03-26T00:13:23;20.20;63.50
13369;DHT22;6753;52.520;13.450;2023-03-26T00:13:34;20.10;63.30
13369;DHT22;6753;52.520;13.450;2023-03-26T00:13:45;20.20;63.40
13369;DHT22;6753;52.520;13.450;2023-03-26T00:13:56;20.10;63.50
13369;DHT22;6753;52.520;13.450;2023-03-26T00:14:08;20.20;63.80
13369;DHT22;6753;52.520;13.450;2023-03-26T00:14:23;20.20;63.70
13369;DHT22;6753;52.520;13.450;2023-03-26T00:14:33;20.10;63.90
13369;DHT22;6753;52.520;13.450;2023-03-26T00:14:44;20.20;63.70
13369;DHT22;6753;52.520;13.450;2023-03-26T00:14:55;20.10;63.60
13369;DHT22;6753;52.520;13.450;2023-03-26T00:15:07;20.10;63.60
13369;DHT22;6753;52.520;13.450;2023-03-26T00:15:19;20.10;63.60
13369;DHT22;6753;52.520;13.450;2023-03-26T00:15:31;20.10;63.60
13369;DHT22;6753;52.520;13.450;2023-03-26T00:15:43;20.10;63.70
13369;DHT22;6753;52.520;13.450;2023-03-26T00:15:53;20.10;63.80
13369;DHT22;6753;52.520;13.450;2023-03-26T00:16:05;20.10;63.80
13369;DHT22;6753;52.520;13.450;2023-03-26T00:16:17;20.90;64.40
13369;DHT22;6753;52.520;13.450;2023-03-26T00:16:30;20.10;63.80
13369;DHT22;6753;52.520;13.450;2023-03-26T00:16:43;20.10;63.70
13369;DHT22;6753;52.520;13.450;2023-03-26T00:16:54;20.10;63.70
13369;DHT22;6753;52.520;13.450;2023-03-26T00:17:06;20.10;63.30
13369;DHT22;6753;52.520;13.450;2023-03-26T00:17:17;20.10;63.40
13369;DHT22;6753;52.520;13.450;2023-03-26T00:17:28;20.10;63.70
13369;DHT22;6753;52.520;13.450;2023-03-26T00:17:39;20.10;63.80
13369;DHT22;6753;52.520;13.450;2023-03-26T00:17:50;20.10;63.90
13369;DHT22;6753;52.520;13.450;2023-03-26T00:18:03;20.10;63.90
13369;DHT22;6753;52.520;13.450;2023-03-26T00:18:15;20.10;63.80
13369;DHT22;6753;52.520;13.450;2023-03-26T00:18:27;20.10;63.60
13369;DHT22;6753;52.520;13.450;2023-03-26T00:18:41;20.10;63.50
13369;DHT22;6753;52.520;13.450;2023-03-26T00:18:52;20.10;63.40
13369;DHT22;6753;52.520;13.450;2023-03-26T00:19:03;20.10;63.30
13369;DHT22;6753;52.520;13.450;2023-03-26T00:19:13;20.10;63.20
13369;DHT22;6753;52.520;13.450;2023-03-26T00:19:24;20.10;63.20
13369;DHT22;6753;52.520;13.450;2023-03-26T00:19:35;20.10;63.00
13369;DHT22;6753;52.520;13.450;2023-03-26T00:19:47;20.10;63.10
13369;DHT22;6753;52.520;13.450;2023-03-26T00:19:58;20.10;63.20
13369;DHT22;6753;52.520;13.450;2023-03-26T00:20:09;20.10;62.80
13369;DHT22;6753;52.520;13.450;2023-03-26T00:20:21;20.10;62.70
13369;DHT22;6753;52.520;13.450;2023-03-26T00:20:31;20.10;62.60
13369;DHT22;6753;52.520;13.450;2023-03-26T00:20:42;20.10;62.60
13369;DHT22;6753;52.520;13.450;2023-03-26T00:20:55;20.10;62.50
13369;DHT22;6753;52.520;13.450;2023-03-26T00:21:06;20.10;62.60
13369;DHT22;6753;52.520;13.450;2023-03-26T00:21:19;20.00;62.40
13369;DHT22;6753;52.520;13.450;2023-03-26T00:21:30;20.00;62.30
13369;DHT22;6753;52.520;13.450;2023-03-26T00:21:41;20.00;62.30
13369;DHT22;6753;52.520;13.450;2023-03-26T00:21:52;20.00;62.10
13369;DHT22;6753;52.520;13.450;2023-03-26T00:22:02;20.00;61.70
13369;DHT22;6753;52.520;13.450;2023-03-26T00:22:13;20.00;61.70
13369;DHT22;6753;52.520;13.450;2023-03-26T00:22:26;20.00;61.70
13369;DHT22;6753;52.520;13.450;2023-03-26T00:22:37;20.00;61.70
13369;DHT22;6753;52.520;13.450;2023-03-26T00:22:48;20.00;61.60
13369;DHT22;6753;52.520;13.450;2023-03-26T00:23:00;20.00;61.70
13369;DHT22;6753;52.520;13.450;2023-03-26T00:23:11;19.90;61.70
13369;DHT22;6753;52.520;13.450;2023-03-26T00:23:21;19.90;61.90
13369;DHT22;6753;52.520;13.450;2023-03-26T00:23:36;19.90;62.10
13369;DHT22;6753;52.520;13.450;2023-03-26T00:23:48;20.00;62.50
13369;DHT22;6753;52.520;13.450;2023-03-26T00:24:01;20.00;62.70
13369;DHT22;6753;52.520;13.450;2023-03-26T00:24:13;20.00;62.70
13369;DHT22;6753;52.520;13.450;2023-03-26T00:24:25;20.00;62.90
13369;DHT22;6753;52.520;13.450;2023-03-26T00:24:39;19.90;62.80
13369;DHT22;6753;52.520;13.450;2023-03-26T00:24:50;20.00;62.90
13369;DHT22;6753;52.520;13.450;2023-03-26T00:25:00;20.00;62.80
13369;DHT22;6753;52.520;13.450;2023-03-26T00:25:11;20.00;62.60
13369;DHT22;6753;52.520;13.450;2023-03-26T00:25:23;20.00;62.60
13369;DHT22;6753;52.520;13.450;2023-03-26T00:25:36;20.00;62.70
13369;DHT22;6753;52.520;13.450;2023-03-26T00:25:47;20.00;62.70
13369;DHT22;6753;52.520;13.450;2023-03-26T00:26:00;19.90;62.70
13369;DHT22;6753;52.520;13.450;2023-03-26T00:26:12;20.00;62.80
13369;DHT22;6753;52.520;13.450;2023-03-26T00:26:22;20.00;62.80
13369;DHT22;6753;52.520;13.450;2023-03-26T00:26:35;20.00;62.80
13369;DHT22;6753;52.520;13.450;2023-03-26T00:26:46;20.00;62.70
13369;DHT22;6753;52.520;13.450;2023-03-26T00:27:02;20.00;62.70
13369;DHT22;6753;52.520;13.450;2023-03-26T00:27:13;20.00;62.70
13369;DHT22;6753;52.520;13.450;2023-03-26T00:27:24;20.00;62.70
13369;DHT22;6753;52.520;13.450;2023-03-26T00:27:35;20.00;62.70
13369;DHT22;6753;52.520;13.450;2023-03-26T00:27:45;20.00;62.70
13369;DHT22;6753;52.520;13.450;2023-03-26T00:27:57;20.00;62.80
13369;DHT22;6753;52.520;13.450;2023-03-26T00:28:08;20.00;62.80
13369;DHT22;6753;52.520;13.450;2023-03-26T00:28:23;20.00;62.70
13369;DHT22;6753;52.520;13.450;2023-03-26T00:28:35;20.10;62.80
13369;DHT22;6753;52.520;13.450;2023-03-26T00:28:47;20.00;62.80
13369;DHT22;6753;52.520;13.450;2023-03-26T00:29:00;20.00;62.80
13369;DHT22;6753;52.520;13.450;2023-03-26T00:29:12;20.10;62.80
13369;DHT22;6753;52.520;13.450;2023-03-26T00:29:25;20.00;62.80
13369;DHT22;6753;52.520;13.450;2023-03-26T00:29:37;20.00;62.90
13369;DHT22;6753;52.520;13.450;2023-03-26T00:29:49;20.00;62.90
13369;DHT22;6753;52.520;13.450;2023-03-26T00:30:00;20.10;62.90
13369;DHT22;6753;52.520;13.450;2023-03-26T00:30:13;20.10;62.80
13369;DHT22;6753;52.520;13.450;2023-03-26T00:30:24;20.10;62.80
13369;DHT22;6753;52.520;13.450;2023-03-26T00:30:36;20.00;63.00
13369;DHT22;6753;52.520;13.450;2023-03-26T00:30:46;20.10;62.90
13369;DHT22;6753;52.520;13.450;2023-03-26T00:31:00;20.00;62.80
13369;DHT22;6753;52.520;13.450;2023-03-26T00:31:13;20.10;62.90
13369;DHT22;6753;52.520;13.450;2023-03-26T00:31:24;20.10;63.00
13369;DHT22;6753;52.520;13.450;2023-03-26T00:31:36;20.10;63.00
13369;DHT22;6753;52.520;13.450;2023-03-26T00:31:50;20.10;62.90
13369;DHT22;6753;52.520;13.450;2023-03-26T00:32:01;20.10;62.90
13369;DHT22;6753;52.520;13.450;2023-03-26T00:32:12;20.10;62.90
13369;DHT22;6753;52.520;13.450;2023-03-26T00:32:22;20.10;63.00
13369;DHT22;6753;52.520;13.450;2023-03-26T00:32:37;20.10;63.00
13369;DHT22;6753;52.520;13.450;2023-03-26T00:32:48;20.10;63.00
13369;DHT22;6753;52.520;13.450;2023-03-26T00:32:58;20.10;62.90
13369;DHT22;6753;52.520;13.450;2023-03-26T00:33:09;20.10;62.90
13369;DHT22;6753;52.520;13.450;2023-03-26T00:33:21;20.10;62.90
13369;DHT22;6753;52.520;13.450;2023-03-26T00:33:33;20.10;62.90
13369;DHT22;6753;52.520;13.450;2023-03-26T00:33:49;20.10;62.90
13369;DHT22;6753;52.520;13.450;2023-03-26T00:34:06;20.10;62.90
13369;DHT22;6753;52.520;13.450;2023-03-26T00:34:18;20.20;63.00
13369;DHT22;6753;52.520;13.450;2023-03-26T00:34:28;20.10;62.90
13369;DHT22;6753;52.520;13.450;2023-03-26T00:34:40;20.10;62.90
13369;DHT22;6753;52.520;13.450;2023-03-26T00:34:52;20.10;62.90
13369;DHT22;6753;52.520;13.450;2023-03-26T00:35:04;20.10;62.90
13369;DHT22;6753;52.520;13.450;2023-03-26T00:35:15;20.20;63.00
13369;DHT22;6753;52.520;13.450;2023-03-26T00:35:26;20.10;62.90
13369;DHT22;6753;52.520;13.450;2023-03-26T00:35:38;20.10;62.90
13369;DHT22;6753;52.520;13.450;2023-03-26T00:35:51;20.10;63.00
13369;DHT22;6753;52.520;13.450;2023-03-26T00:36:05;20.10;62.90
13369;DHT22;6753;52.520;13.450;2023-03-26T00:36:20;20.10;62.90
13369;DHT22;6753;52.520;13.450;2023-03-26T00:36:31;20.10;62.90
13369;DHT22;6753;52.520;13.450;2023-03-26T00:36:45;20.10;62.90
13369;DHT22;6753;52.520;13.450;2023-03-26T00:36:56;20.10;62.90
13369;DHT22;6753;52.520;13.450;2023-03-26T00:37:11;17.70;61.30
13369;DHT22;6753;52.520;13.450;2023-03-26T00:37:24;20.10;62.90
13369;DHT22;6753;52.520;13.450;2023-03-26T00:37:36;20.20;63.00
13369;DHT22;6753;52.520;13.450;2023-03-26T00:37:48;20.20;63.00
13369;DHT22;6753;52.520;13.450;2023-03-26T00:38:00;20.20;63.00
13369;DHT22;6753;52.520;13.450;2023-03-26T00:38:12;20.20;63.00
13369;DHT22;6753;52.520;13.450;2023-03-26T00:38:24;20.10;62.90
13369;DHT22;6753;52.520;13.450;2023-03-26T00:38:35;20.10;62.90
13369;DHT22;6753;52.520;13.450;2023-03-26T00:38:48;20.20;62.90
13369;DHT22;6753;52.520;13.450;2023-03-26T00:38:59;20.20;63.00
13369;DHT22;6753;52.520;13.450;2023-03-26T00:39:10;20.10;63.00
13369;DHT22;6753;52.520;13.450;2023-03-26T00:39:21;20.10;62.90
13369;DHT22;6753;52.520;13.450;2023-03-26T00:39:33;20.10;62.90
13369;DHT22;6753;52.520;13.450;2023-03-26T00:39:46;20.10;62.90
13369;DHT22;6753;52.520;13.450;2023-03-26T00:39:58;20.10;63.00
13369;DHT22;6753;52.520;13.450;2023-03-26T00:40:20;20.10;63.00
13369;DHT22;6753;52.520;13.450;2023-03-26T00:40:31;20.20;63.00
13369;DHT22;6753;52.520;13.450;2023-03-26T00:40:46;20.10;63.00
13369;DHT22;6753;52.520;13.450;2023-03-26T00:41:00;20.20;63.20
13369;DHT22;6753;52.520;13.450;2023-03-26T00:41:16;20.20;63.10
13369;DHT22;6753;52.520;13.450;2023-03-26T00:41:32;20.20;63.20
13369;DHT22;6753;52.520;13.450;2023-03-26T00:41:46;20.20;62.90
13369;DHT22;6753;52.520;13.450;2023-03-26T00:41:57;20.20;62.90
13369;DHT22;6753;52.520;13.450;2023-03-26T00:42:07;20.20;63.00
13369;DHT22;6753;52.520;13.450;2023-03-26T00:42:19;20.20;63.10
13369;DHT22;6753;52.520;13.450;2023-03-26T00:42:30;20.20;63.10
13369;DHT22;6753;52.520;13.450;2023-03-26T00:42:42;20.20;63.40
13369;DHT22;6753;52.520;13.450;2023-03-26T00:42:52;20.20;63.20
13369;DHT22;6753;52.520;13.450;2023-03-26T00:43:03;20.20;63.20
13369;DHT22;6753;52.520;13.450;2023-03-26T00:43:27;20.20;63.10
13369;DHT22;6753;52.520;13.450;2023-03-26T00:43:43;20.20;63.10
13369;DHT22;6753;52.520;13.450;2023-03-26T00:43:56;20.20;63.00
13369;DHT22;6753;52.520;13.450;2023-03-26T00:44:09;20.20;62.90
13369;DHT22;6753;52.520;13.450;2023-03-26T00:44:20;20.20;63.10
13369;DHT22;6753;52.520;13.450;2023-03-26T00:44:31;20.20;63.10
13369;DHT22;6753;52.520;13.450;2023-03-26T00:44:42;20.20;63.10
13369;DHT22;6753;52.520;13.450;2023-03-26T00:44:53;20.20;63.00
13369;DHT22;6753;52.520;13.450;2023-03-26T00:45:07;20.20;63.00
13369;DHT22;6753;52.520;13.450;2023-03-26T00:45:18;20.20;63.10
13369;DHT22;6753;52.520;13.450;2023-03-26T00:45:31;20.20;63.10
13369;DHT22;6753;52.520;13.450;2023-03-26T00:45:41;20.20;63.10
13369;DHT22;6753;52.520;13.450;2023-03-26T00:45:54;20.20;63.10
13369;DHT22;6753;52.520;13.450;2023-03-26T00:46:05;20.20;63.10
13369;DHT22;6753;52.520;13.450;2023-03-26T00:46:16;20.20;63.00
13369;DHT22;6753;52.520;13.450;2023-03-26T00:46:28;20.20;63.00
13369;DHT22;6753;52.520;13.450;2023-03-26T00:46:39;20.20;63.00
13369;DHT22;6753;52.520;13.450;2023-03-26T00:46:52;20.20;63.10
13369;DHT22;6753;52.520;13.450;2023-03-26T00:47:03;20.20;63.10
13369;DHT22;6753;52.520;13.450;2023-03-26T00:47:14;20.20;63.20
13369;DHT22;6753;52.520;13.450;2023-03-26T00:47:26;20.20;63.10
13369;DHT22;6753;52.520;13.450;2023-03-26T00:47:40;20.10;63.00
13369;DHT22;6753;52.520;13.450;2023-03-26T00:47:52;20.20;63.20
13369;DHT22;6753;52.520;13.450;2023-03-26T00:48:03;20.10;63.10
13369;DHT22;6753;52.520;13.450;2023-03-26T00:48:15;20.20;63.20
13369;DHT22;6753;52.520;13.450;2023-03-26T00:48:27;20.20;63.20
13369;DHT22;6753;52.520;13.450;2023-03-26T00:48:39;20.10;63.10
13369;DHT22;6753;52.520;13.450;2023-03-26T00:48:52;20.10;63.00
13369;DHT22;6753;52.520;13.450;2023-03-26T00:49:02;20.10;63.00
13369;DHT22;6753;52.520;13.450;2023-03-26T00:49:13;20.10;63.10
13369;DHT22;6753;52.520;13.450;2023-03-26T00:49:24;20.10;63.10
13369;DHT22;6753;52.520;13.450;2023-03-26T00:49:36;20.10;63.10
13369;DHT22;6753;52.520;13.450;2023-03-26T00:49:46;20.10;63.10
13369;DHT22;6753;52.520;13.450;2023-03-26T00:49:58;20.10;63.10
13369;DHT22;6753;52.520;13.450;2023-03-26T00:50:09;20.10;63.10
13369;DHT22;6753;52.520;13.450;2023-03-26T00:50:24;20.10;63.10
13369;DHT22;6753;52.520;13.450;2023-03-26T00:50:38;20.10;63.10
13369;DHT22;6753;52.520;13.450;2023-03-26T00:50:49;20.10;63.10
13369;DHT22;6753;52.520;13.450;2023-03-26T00:51:00;20.10;63.10
13369;DHT22;6753;52.520;13.450;2023-03-26T00:51:11;20.10;63.20
13369;DHT22;6753;52.520;13.450;2023-03-26T00:51:25;20.10;63.20
13369;DHT22;6753;52.520;13.450;2023-03-26T00:51:36;20.20;63.20
13369;DHT22;6753;52.520;13.450;2023-03-26T00:51:48;20.10;63.20
13369;DHT22;6753;52.520;13.450;2023-03-26T00:51:59;20.10;63.20
13369;DHT22;6753;52.520;13.450;2023-03-26T00:52:11;20.10;63.10
13369;DHT22;6753;52.520;13.450;2023-03-26T00:52:22;20.10;63.10
13369;DHT22;6753;52.520;13.450;2023-03-26T00:52:32;20.10;63.10
13369;DHT22;6753;52.520;13.450;2023-03-26T00:52:45;20.10;63.10
13369;DHT22;6753;52.520;13.450;2023-03-26T00:52:56;20.10;63.10
13369;DHT22;6753;52.520;13.450;2023-03-26T00:53:08;20.10;63.20
13369;DHT22;6753;52.520;13.450;2023-03-26T00:53:21;20.10;63.20
13369;DHT22;6753;52.520;13.450;2023-03-26T00:53:32;20.10;63.20
13369;DHT22;6753;52.520;13.450;2023-03-26T00:53:44;20.10;63.20
13369;DHT22;6753;52.520;13.450;2023-03-26T00:53:56;20.10;63.10
13369;DHT22;6753;52.520;13.450;2023-03-26T00:54:07;20.10;63.20
13369;DHT22;6753;52.520;13.450;2023-03-26T00:54:19;20.10;63.20
13369;DHT22;6753;52.520;13.450;2023-03-26T00:54:30;20.10;63.00
13369;DHT22;6753;52.520;13.450;2023-03-26T00:54:41;20.10;63.00
13369;DHT22;6753;52.520;13.450;2023-03-26T00:54:52;20.10;63.10
13369;DHT22;6753;52.520;13.450;2023-03-26T00:55:03;20.10;63.20
13369;DHT22;6753;52.520;13.450;2023-03-26T00:55:14;20.10;63.20
13369;DHT22;6753;52.520;13.450;2023-03-26T00:55:25;20.10;63.20
13369;DHT22;6753;52.520;13.450;2023-03-26T00:55:36;20.10;63.20
13369;DHT22;6753;52.520;13.450;2023-03-26T00:55:47;20.10;63.00
13369;DHT22;6753;52.520;13.450;2023-03-26T00:55:59;20.10;63.00
13369;DHT22;6753;52.520;13.450;2023-03-26T00:56:11;20.10;63.20
13369;DHT22;6753;52.520;13.450;2023-03-26T00:56:22;20.10;63.20
13369;DHT22;6753;52.520;13.450;2023-03-26T00:56:33;20.10;63.10
13369;DHT22;6753;52.520;13.450;2023-03-26T00:56:44;20.10;63.10
13369;DHT22;6753;52.520;13.450;2023-03-26T00:56:54;20.10;63.10
13369;DHT22;6753;52.520;13.450;2023-03-26T00:57:09;20.10;63.10
13369;DHT22;6753;52.520;13.450;2023-03-26T00:57:22;20.10;63.10
13369;DHT22;6753;52.520;13.450;2023-03-26T00:57:33;20.10;63.20
13369;DHT22;6753;52.520;13.450;2023-03-26T00:57:46;20.10;63.20
13369;DHT22;6753;52.520;13.450;2023-03-26T00:57:57;20.10;63.10
13369;DHT22;6753;52.520;13.450;2023-03-26T00:58:08;20.10;63.10
13369;DHT22;6753;52.520;13.450;2023-03-26T00:58:19;20.10;63.20
13369;DHT22;6753;52.520;13.450;2023-03-26T00:58:32;20.10;63.30
13369;DHT22;6753;52.520;13.450;2023-03-26T00:58:43;20.10;63.30
13369;DHT22;6753;52.520;13.450;2023-03-26T00:58:53;20.10;63.20
13369;DHT22;6753;52.520;13.450;2023-03-26T00:59:07;20.10;63.20
13369;DHT22;6753;52.520;13.450;2023-03-26T00:59:18;20.10;63.10
13369;DHT22;6753;52.520;13.450;2023-03-26T00:59:31;20.10;63.20
13369;DHT22;6753;52.520;13.450;2023-03-26T00:59:45;20.10;63.20
13369;DHT22;6753;52.520;13.450;2023-03-26T00:59:56;20.10;63.30
13369;DHT22;6753;52.520;13.450;2023-03-26T01:00:09;20.10;63.40
13369;DHT22;6753;52.520;13.450;2023-03-26T01:00:28;20.10;63.40
13369;DHT22;6753;52.520;13.450;2023-03-26T01:00:45;20.10;63.40
13369;DHT22;6753;52.520;13.450;2023-03-26T01:01:02;20.20;63.40
13369;DHT22;6753;52.520;13.450;2023-03-26T01:01:16;20.10;63.30
13369;DHT22;6753;52.520;13.450;2023-03-26T01:01:28;20.10;63.30
13369;DHT22;6753;52.520;13.450;2023-03-26T01:01:39;20.20;63.30
13369;DHT22;6753;52.520;13.450;2023-03-26T01:01:51;20.10;63.30
13369;DHT22;6753;52.520;13.450;2023-03-26T01:02:04;20.10;63.20
13369;DHT22;6753;52.520;13.450;2023-03-26T01:02:18;20.10;63.40
13369;DHT22;6753;52.520;13.450;2023-03-26T01:02:30;20.10;63.40
13369;DHT22;6753;52.520;13.450;2023-03-26T01:02:42;20.10;63.50
13369;DHT22;6753;52.520;13.450;2023-03-26T01:02:54;20.10;63.40
13369;DHT22;6753;52.520;13.450;2023-03-26T01:03:05;20.20;63.60
13369;DHT22;6753;52.520;13.450;2023-03-26T01:03:16;20.10;63.50
13369;DHT22;6753;52.520;13.450;2023-03-26T01:03:30;20.10;63.40
13369;DHT22;6753;52.520;13.450;2023-03-26T01:03:44;20.20;63.50
13369;DHT22;6753;52.520;13.450;2023-03-26T01:03:56;20.10;63.30
13369;DHT22;6753;52.520;13.450;2023-03-26T01:04:26;20.10;63.40
13369;DHT22;6753;52.520;13.450;2023-03-26T01:04:43;20.20;63.50
13369;DHT22;6753;52.520;13.450;2023-03-26T01:04:57;20.20;63.40
13369;DHT22;6753;52.520;13.450;2023-03-26T01:05:40;20.10;63.30
13369;DHT22;6753;52.520;13.450;2023-03-26T01:05:56;20.20;63.50
13369;DHT22;6753;52.520;13.450;2023-03-26T01:06:10;20.10;63.50
13369;DHT22;6753;52.520;13.450;2023-03-26T01:06:24;20.10;63.70
13369;DHT22;6753;52.520;13.450;2023-03-26T01:06:38;20.20;63.50
13369;DHT22;6753;52.520;13.450;2023-03-26T01:06:51;20.20;63.50
13369;DHT22;6753;52.520;13.450;2023-03-26T01:07:09;20.10;63.50
13369;DHT22;6753;52.520;13.450;2023-03-26T01:07:24;20.10;63.50
13369;DHT22;6753;52.520;13.450;2023-03-26T01:07:38;20.20;63.50
13369;DHT22;6753;52.520;13.450;2023-03-26T01:07:49;20.20;63.50
13369;DHT22;6753;52.520;13.450;2023-03-26T01:08:00;20.20;63.50
13369;DHT22;6753;52.520;13.450;2023-03-26T01:08:21;20.20;63.50
13369;DHT22;6753;52.520;13.450;2023-03-26T01:08:33;20.20;63.50
13369;DHT22;6753;52.520;13.450;2023-03-26T01:08:47;20.20;63.60
13369;DHT22;6753;52.520;13.450;2023-03-26T01:09:02;20.20;63.60
13369;DHT22;6753;52.520;13.450;2023-03-26T01:09:17;20.20;63.50
13369;DHT22;6753;52.520;13.450;2023-03-26T01:09:32;20.20;63.50
13369;DHT22;6753;52.520;13.450;2023-03-26T01:09:45;20.20;63.50
13369;DHT22;6753;52.520;13.450;2023-03-26T01:09:59;20.20;63.40
13369;DHT22;6753;52.520;13.450;2023-03-26T01:10:11;20.20;63.40
13369;DHT22;6753;52.520;13.450;2023-03-26T01:10:24;20.20;63.40
13369;DHT22;6753;52.520;13.450;2023-03-26T01:10:35;20.20;63.40
13369;DHT22;6753;52.520;13.450;2023-03-26T01:10:48;20.30;63.50
13369;DHT22;6753;52.520;13.450;2023-03-26T01:11:03;20.20;63.50
13369;DHT22;6753;52.520;13.450;2023-03-26T01:11:18;20.20;63.50
13369;DHT22;6753;52.520;13.450;2023-03-26T01:11:32;20.20;63.50
13369;DHT22;6753;52.520;13.450;2023-03-26T01:11:45;20.20;63.50
13369;DHT22;6753;52.520;13.450;2023-03-26T01:11:57;20.20;63.50
13369;DHT22;6753;52.520;13.450;2023-03-26T01:12:11;20.30;63.60
13369;DHT22;6753;52.520;13.450;2023-03-26T01:12:25;20.30;63.50
13369;DHT22;6753;52.520;13.450;2023-03-26T01:12:36;20.20;63.30
13369;DHT22;6753;52.520;13.450;2023-03-26T01:12:47;20.20;63.30
13369;DHT22;6753;52.520;13.450;2023-03-26T01:12:58;20.20;63.30
13369;DHT22;6753;52.520;13.450;2023-03-26T01:13:12;20.20;63.40
13369;DHT22;6753;52.520;13.450;2023-03-26T01:13:23;20.20;63.30
13369;DHT22;6753;52.520;13.450;2023-03-26T01:13:37;20.20;63.00
13369;DHT22;6753;52.520;13.450;2023-03-26T01:13:49;20.20;63.20
13369;DHT22;6753;52.520;13.450;2023-03-26T01:14:05;20.20;63.30
13369;DHT22;6753;52.520;13.450;2023-03-26T01:14:19;20.20;63.30
13369;DHT22;6753;52.520;13.450;2023-03-26T01:14:30;20.20;63.40
13369;DHT22;6753;52.520;13.450;2023-03-26T01:14:41;20.10;63.30
13369;DHT22;6753;52.520;13.450;2023-03-26T01:14:55;20.10;63.30
13369;DHT22;6753;52.520;13.450;2023-03-26T01:15:07;20.10;63.40
13369;DHT22;6753;52.520;13.450;2023-03-26T01:15:19;20.10;63.40
13369;DHT22;6753;52.520;13.450;2023-03-26T01:15:31;20.10;63.40
13369;DHT22;6753;52.520;13.450;2023-03-26T01:15:43;20.10;63.40
13369;DHT22;6753;52.520;13.450;2023-03-26T01:15:59;20.20;63.40
13369;DHT22;6753;52.520;13.450;2023-03-26T01:16:20;20.20;63.50
13369;DHT22;6753;52.520;13.450;2023-03-26T01:16:35;20.10;63.40
13369;DHT22;6753;52.520;13.450;2023-03-26T01:16:50;20.10;63.40
13369;DHT22;6753;52.520;13.450;2023-03-26T01:17:04;20.10;63.40
13369;DHT22;6753;52.520;13.450;2023-03-26T01:17:17;20.10;63.40
13369;DHT22;6753;52.520;13.450;2023-03-26T01:17:28;20.10;63.50
13369;DHT22;6753;52.520;13.450;2023-03-26T01:17:45;20.10;63.50
13369;DHT22;6753;52.520;13.450;2023-03-26T01:17:56;20.10;63.30
13369;DHT22;6753;52.520;13.450;2023-03-26T01:18:08;20.10;63.10